East Texas Regional Airport
KGGG : now visible

Airfield :











YOU CAN JOIN US ON...

 
LOGIN :

Register | Disclaimer

   EN    FR    IT 

 









Legend :    VFR   Marginal VFR   IFR   Intensive IFR   Very Intensive IFR
Visi :
Ceiling :
>= 8 km
>= 3000ft
5 to 8 km
1000 to 3000 ft
1500m to 5 km
500 to 1000 ft
800 to 1500m
200 to 500 ft
< 800m
< 200 ft
Symbols :   Thunderstorms  Fog  Heavy snow  Heavy precipitations  Wind > 20 kt







- Airport Elevation : 365 ft
- IATA code : GGG


KGGG - East Texas Regional

CURRENT METAR :
  • 210353Z AUTO 13005KT 10SM CLR 24/23 A3007 RMK AO2 SLP177 T02440233

EXPIRED METARs :
  • 210253Z 16009KT 10SM CLR 24/23 A3006 RMK AO2 SLP174 T02440228 53015
  • 210153Z 12007KT 10SM BKN110 26/22 A3005 RMK AO2 SLP169 T02560222

TAF KGGG
Valid from the 21 at 00:00 until the 22 at 00:00 UTC


202320Z 2100/2124 16004KT P6SM SCT070
FM211100 14006KT P6SM BKN015
FM211600 15011KT P6SM SCT020 SCT040
FM211900 15012G18KT P6SM SCT040
No reported NOTAMs for that airfield.



MET'MAP, your aeronautical weather chart ! - Copyright ORBIFLY December 2007 - Disclaimer

ORBIFLY MET'MAP TEAM :

Programming & Development : Alexandra Zaïnal
Concept & Development : Baudouin d'Aumeries
Co-Development & Prog : Marc-Olivier Méhu
Technical & hardware support : Manuel Goepfert

Contact : metmap@orbifly.com




SOURCES & CREDITS :

   NOAA       Earth
Advisory